createdAt,value
2023-05-21T00:00:03.145Z,72.21
2023-05-21T00:01:06.289Z,73.06
2023-05-21T00:02:14.888Z,74.19
2023-05-21T00:03:18.261Z,73.04
2023-05-21T00:04:21.220Z,73.54
2023-05-21T00:05:24.316Z,74.15
2023-05-21T00:06:27.916Z,73.84
2023-05-21T00:07:33.423Z,74.11
2023-05-21T00:08:36.340Z,73.92
2023-05-21T00:09:39.713Z,73.88
2023-05-21T00:10:42.608Z,73.76
2023-05-21T00:11:45.445Z,74.12
2023-05-21T00:12:48.276Z,74.38
2023-05-21T00:13:51.163Z,74.10
2023-05-21T00:14:54.009Z,74.85
2023-05-21T00:15:56.957Z,73.98
2023-05-21T00:16:59.887Z,73.80
2023-05-21T00:18:03.919Z,74.34
2023-05-21T00:19:07.163Z,74.59
2023-05-21T00:20:10.334Z,73.69
2023-05-21T00:21:14.368Z,74.07
2023-05-21T00:22:17.322Z,73.71
2023-05-21T00:23:20.280Z,72.90
2023-05-21T00:24:23.230Z,73.57
2023-05-21T00:25:26.336Z,73.48
2023-05-21T00:26:29.215Z,72.78
2023-05-21T00:27:32.366Z,72.79
2023-05-21T00:28:35.372Z,72.28
2023-05-21T00:29:38.674Z,72.13
2023-05-21T00:30:43.369Z,71.77
2023-05-21T00:31:46.409Z,72.67
2023-05-21T00:32:49.399Z,73.25
2023-05-21T00:33:52.546Z,72.81
2023-05-21T00:34:55.913Z,72.53
2023-05-21T00:35:59.159Z,73.31
2023-05-21T00:37:03.481Z,73.10
2023-05-21T00:38:08.768Z,73.36
2023-05-21T00:39:13.521Z,72.75
2023-05-21T00:40:16.635Z,72.91
2023-05-21T00:41:20.095Z,72.76
2023-05-21T00:42:27.648Z,73.22
2023-05-21T00:43:30.515Z,72.90
2023-05-21T00:44:34.623Z,72.64
2023-05-21T00:45:38.067Z,73.53
2023-05-21T00:46:41.857Z,74.12
2023-05-21T00:47:46.137Z,73.93
2023-05-21T00:48:51.018Z,73.69
2023-05-21T00:49:53.995Z,73.72
2023-05-21T00:50:56.915Z,73.36
2023-05-21T00:52:01.861Z,73.61
2023-05-21T00:53:05.123Z,73.70
2023-05-21T00:54:08.574Z,74.12
2023-05-21T00:55:11.780Z,74.00
2023-05-21T00:56:14.762Z,73.49
2023-05-21T00:57:22.678Z,73.42
2023-05-21T00:58:25.948Z,73.71
2023-05-21T00:59:29.126Z,73.76
2023-05-21T01:00:36.066Z,73.72
2023-05-21T01:01:39.056Z,73.64
2023-05-21T01:02:42.598Z,73.42
2023-05-21T01:03:45.570Z,74.19
2023-05-21T01:04:48.506Z,74.18
2023-05-21T01:05:53.904Z,73.41
2023-05-21T01:06:58.887Z,74.00
2023-05-21T01:08:02.262Z,74.04
2023-05-21T01:09:07.466Z,73.39
2023-05-21T01:10:12.391Z,74.19
2023-05-21T01:11:15.368Z,74.46
2023-05-21T01:12:19.258Z,74.44
2023-05-21T01:13:23.504Z,75.10
2023-05-21T01:14:26.828Z,75.09
2023-05-21T01:15:30.225Z,74.55
2023-05-21T01:16:33.109Z,73.95
2023-05-21T01:17:36.156Z,74.32
2023-05-21T01:18:39.360Z,75.12
2023-05-21T01:19:44.947Z,75.17
2023-05-21T01:20:48.555Z,75.13
2023-05-21T01:22:02.023Z,75.28
2023-05-21T01:23:06.207Z,75.80
2023-05-21T01:24:09.041Z,75.72
2023-05-21T01:25:12.423Z,75.44
2023-05-21T01:26:16.170Z,75.35
2023-05-21T01:27:19.211Z,75.34
2023-05-21T01:28:22.099Z,75.68
2023-05-21T01:29:25.697Z,76.13
2023-05-21T01:30:28.869Z,75.70
2023-05-21T01:31:48.871Z,75.62
2023-05-21T01:33:18.048Z,76.71
2023-05-21T01:34:27.169Z,76.32
2023-05-21T01:35:55.279Z,76.28
2023-05-21T01:37:11.765Z,76.27
2023-05-21T01:38:26.676Z,76.01
2023-05-21T01:39:36.018Z,77.42
2023-05-21T01:40:58.955Z,77.59
2023-05-21T01:42:06.520Z,76.84
2023-05-21T01:43:10.929Z,76.29
2023-05-21T01:44:18.252Z,76.64
2023-05-21T01:45:24.478Z,76.90
2023-05-21T01:46:30.684Z,77.61
2023-05-21T01:47:36.287Z,77.09
2023-05-21T01:48:39.519Z,76.30
2023-05-21T01:49:42.965Z,77.83
2023-05-21T01:50:46.589Z,78.51
2023-05-21T01:51:50.084Z,78.22
2023-05-21T01:52:57.146Z,77.45
2023-05-21T01:54:00.023Z,77.41
2023-05-21T01:55:03.886Z,77.63
2023-05-21T01:56:07.454Z,76.81
2023-05-21T01:57:10.490Z,77.58
2023-05-21T01:58:13.609Z,77.91
2023-05-21T01:59:17.621Z,78.18
2023-05-21T02:00:24.968Z,78.24
2023-05-21T02:01:30.417Z,78.11
2023-05-21T02:02:33.667Z,78.37
2023-05-21T02:03:37.104Z,78.44
2023-05-21T02:04:41.785Z,78.44
2023-05-21T02:05:44.771Z,78.23
2023-05-21T02:06:47.900Z,78.76
2023-05-21T02:07:52.280Z,79.72
2023-05-21T02:08:55.861Z,78.13
2023-05-21T02:09:58.659Z,77.91
2023-05-21T02:11:01.655Z,76.73
2023-05-21T02:12:04.808Z,77.05
2023-05-21T02:13:07.807Z,77.37
2023-05-21T02:14:10.812Z,77.19
2023-05-21T02:15:18.332Z,77.58
2023-05-21T02:16:22.858Z,78.00
2023-05-21T02:17:26.499Z,77.90
2023-05-21T02:18:29.588Z,78.28
2023-05-21T02:19:32.705Z,77.86
2023-05-21T02:20:35.809Z,77.87
2023-05-21T02:21:38.712Z,78.49
2023-05-21T02:22:44.289Z,78.25
2023-05-21T02:23:47.254Z,78.36
2023-05-21T02:24:50.123Z,78.71
2023-05-21T02:25:53.101Z,78.14
2023-05-21T02:26:56.567Z,77.84
2023-05-21T02:27:59.813Z,78.22
2023-05-21T02:29:04.297Z,78.68
2023-05-21T02:30:09.224Z,78.67
2023-05-21T02:31:12.805Z,77.56
2023-05-21T02:32:15.717Z,77.71
2023-05-21T02:33:20.043Z,78.35
2023-05-21T02:34:23.176Z,78.97
2023-05-21T02:35:26.286Z,79.36
2023-05-21T02:36:29.105Z,79.23
2023-05-21T02:37:34.419Z,78.50
2023-05-21T02:38:38.558Z,78.01
2023-05-21T02:39:41.602Z,78.77
2023-05-21T02:40:44.467Z,78.67
2023-05-21T02:41:48.044Z,78.16
2023-05-21T02:42:50.951Z,78.24
2023-05-21T02:43:53.693Z,78.71
2023-05-21T02:44:57.006Z,78.87
2023-05-21T02:46:00.087Z,79.21
2023-05-21T02:47:03.244Z,79.67
2023-05-21T02:48:06.534Z,79.06
2023-05-21T02:49:09.457Z,79.89
2023-05-21T02:50:14.363Z,78.52
2023-05-21T02:51:17.156Z,78.14
2023-05-21T02:52:24.176Z,78.46
2023-05-21T02:53:27.174Z,79.21
2023-05-21T02:54:29.952Z,79.11
2023-05-21T02:55:32.881Z,78.99
2023-05-21T02:56:35.766Z,79.09
2023-05-21T02:57:38.867Z,80.18
2023-05-21T02:58:42.214Z,78.39
2023-05-21T02:59:46.165Z,78.31
2023-05-21T03:00:49.198Z,78.64
2023-05-21T03:01:52.191Z,78.76
2023-05-21T03:02:55.283Z,78.59
2023-05-21T03:03:58.353Z,78.98
2023-05-21T03:05:01.248Z,77.71
2023-05-21T03:06:04.289Z,78.32
2023-05-21T03:07:07.242Z,78.53
2023-05-21T03:08:10.055Z,78.87
2023-05-21T03:09:13.475Z,78.86
2023-05-21T03:10:16.601Z,78.44
2023-05-21T03:11:20.553Z,78.40
2023-05-21T03:12:23.455Z,78.27
2023-05-21T03:13:26.371Z,78.22
2023-05-21T03:14:29.421Z,77.16
2023-05-21T03:15:33.673Z,77.81
2023-05-21T03:16:36.700Z,76.68
2023-05-21T03:17:39.665Z,76.53
2023-05-21T03:18:44.626Z,77.57
2023-05-21T03:19:49.503Z,78.22
2023-05-21T03:20:52.348Z,78.86
2023-05-21T03:21:56.857Z,78.09
2023-05-21T03:23:00.848Z,77.46
2023-05-21T03:24:04.865Z,78.39
2023-05-21T03:25:07.954Z,77.88
2023-05-21T03:26:11.814Z,78.21
2023-05-21T03:27:14.709Z,78.52
2023-05-21T03:28:18.076Z,76.71
2023-05-21T03:29:21.079Z,77.19
2023-05-21T03:30:24.034Z,76.47
2023-05-21T03:31:27.392Z,77.84
2023-05-21T03:32:30.531Z,77.33
2023-05-21T03:33:33.575Z,76.99
2023-05-21T03:34:36.487Z,78.87
2023-05-21T03:35:39.452Z,77.69
2023-05-21T03:36:42.306Z,77.25
2023-05-21T03:37:45.204Z,76.54
2023-05-21T03:38:48.137Z,77.86
2023-05-21T03:39:51.115Z,76.90
2023-05-21T03:40:54.537Z,77.02
2023-05-21T03:41:57.369Z,76.34
2023-05-21T03:43:00.456Z,76.77
2023-05-21T03:44:03.408Z,77.11
2023-05-21T03:45:07.234Z,77.01
2023-05-21T03:46:10.270Z,76.61
2023-05-21T03:47:13.087Z,77.22
2023-05-21T03:48:16.160Z,75.75
2023-05-21T03:49:19.014Z,76.74
2023-05-21T03:50:21.975Z,76.05
2023-05-21T03:51:25.196Z,75.44
2023-05-21T03:52:28.101Z,75.22
2023-05-21T03:53:31.203Z,75.40
2023-05-21T03:54:34.205Z,74.50
2023-05-21T03:55:37.446Z,75.27
2023-05-21T03:56:40.435Z,75.05
2023-05-21T03:57:43.416Z,75.56
2023-05-21T03:58:47.089Z,75.86
2023-05-21T03:59:49.895Z,75.76
2023-05-21T04:00:52.868Z,75.25
2023-05-21T04:01:55.841Z,74.54
2023-05-21T04:02:59.326Z,74.52
2023-05-21T04:04:02.699Z,73.36
2023-05-21T04:05:06.066Z,73.64
2023-05-21T04:06:10.522Z,74.26
2023-05-21T04:07:15.799Z,74.01
2023-05-21T04:08:18.618Z,74.35
2023-05-21T04:09:22.085Z,74.08
2023-05-21T04:10:25.034Z,74.18
2023-05-21T04:11:27.880Z,73.65
2023-05-21T04:12:30.862Z,73.83
2023-05-21T04:13:33.837Z,73.80
2023-05-21T04:14:37.949Z,73.25
2023-05-21T04:15:41.139Z,72.67
2023-05-21T04:16:44.427Z,72.90
2023-05-21T04:17:47.781Z,73.57
2023-05-21T04:18:51.719Z,73.81
2023-05-21T04:19:54.796Z,73.51
2023-05-21T04:20:59.455Z,73.62
2023-05-21T04:22:03.438Z,73.42
2023-05-21T04:23:06.382Z,73.47
2023-05-21T04:24:09.237Z,72.53
2023-05-21T04:25:12.390Z,72.76
2023-05-21T04:26:16.646Z,73.04
2023-05-21T04:27:19.586Z,72.51
2023-05-21T04:28:24.511Z,72.22
2023-05-21T04:29:28.222Z,72.17
2023-05-21T04:30:31.145Z,72.50
2023-05-21T04:31:34.302Z,72.83
2023-05-21T04:32:37.260Z,72.43
2023-05-21T04:33:42.458Z,70.46
2023-05-21T04:34:45.509Z,70.68
2023-05-21T04:35:51.124Z,71.13
2023-05-21T04:36:54.392Z,70.43
2023-05-21T04:37:57.292Z,70.50
2023-05-21T04:39:00.617Z,68.62
2023-05-21T04:40:04.521Z,69.26
2023-05-21T04:41:07.533Z,69.02
2023-05-21T04:42:11.275Z,69.89
2023-05-21T04:43:14.250Z,69.16
2023-05-21T04:44:17.141Z,68.08
2023-05-21T04:45:20.109Z,68.44
2023-05-21T04:46:26.395Z,69.21
2023-05-21T04:47:30.768Z,69.35
2023-05-21T04:48:33.640Z,68.82
2023-05-21T04:49:36.368Z,69.13
2023-05-21T04:50:39.352Z,69.87
2023-05-21T04:51:42.178Z,69.49
2023-05-21T04:52:45.877Z,69.53
2023-05-21T04:53:50.167Z,68.42
2023-05-21T04:54:54.566Z,69.37
2023-05-21T04:55:59.596Z,68.19
2023-05-21T04:57:03.211Z,68.31
2023-05-21T04:58:11.205Z,68.50
2023-05-21T04:59:14.665Z,68.24
2023-05-21T05:00:17.842Z,68.18
2023-05-21T05:01:25.994Z,69.12
2023-05-21T05:02:29.010Z,69.20
2023-05-21T05:03:31.915Z,68.65
2023-05-21T05:04:34.768Z,68.28
2023-05-21T05:05:38.020Z,68.68
2023-05-21T05:06:41.235Z,67.72
2023-05-21T05:07:44.271Z,67.50
2023-05-21T05:08:47.384Z,68.09
2023-05-21T05:09:50.240Z,66.84
2023-05-21T05:10:53.121Z,66.82
2023-05-21T05:11:56.083Z,66.64
2023-05-21T05:12:59.186Z,67.01
2023-05-21T05:14:02.120Z,67.17
2023-05-21T05:15:05.237Z,67.02
2023-05-21T05:16:08.344Z,66.77
2023-05-21T05:17:14.939Z,66.48
2023-05-21T05:18:17.900Z,66.72
2023-05-21T05:19:21.221Z,66.69
2023-05-21T05:20:24.161Z,66.93
2023-05-21T05:21:27.482Z,66.37
2023-05-21T05:22:30.423Z,67.65
2023-05-21T05:23:33.368Z,67.03
2023-05-21T05:24:36.142Z,65.13
2023-05-21T05:25:39.218Z,64.98
2023-05-21T05:26:42.135Z,65.84
2023-05-21T05:27:45.238Z,66.04
2023-05-21T05:28:48.121Z,66.34
2023-05-21T05:29:51.118Z,65.67
2023-05-21T05:30:54.478Z,65.98
2023-05-21T05:31:57.385Z,66.23
2023-05-21T05:33:00.457Z,65.19
2023-05-21T05:34:03.530Z,64.46
2023-05-21T05:35:07.574Z,64.06
2023-05-21T05:36:10.449Z,63.99
2023-05-21T05:37:13.362Z,63.97
2023-05-21T05:38:17.414Z,64.09
2023-05-21T05:39:20.271Z,64.86
2023-05-21T05:40:23.089Z,64.10
2023-05-21T05:41:27.351Z,63.46
2023-05-21T05:42:30.242Z,63.66
2023-05-21T05:43:33.241Z,64.40
2023-05-21T05:44:36.194Z,64.36
2023-05-21T05:45:39.311Z,64.45
2023-05-21T05:46:42.610Z,62.17
2023-05-21T05:47:45.770Z,62.98
2023-05-21T05:48:48.615Z,62.92
2023-05-21T05:49:51.508Z,63.59
2023-05-21T05:50:55.445Z,62.42
2023-05-21T05:51:58.295Z,62.07
2023-05-21T05:53:01.166Z,61.82
2023-05-21T05:54:04.238Z,62.24
2023-05-21T05:55:09.452Z,61.88
2023-05-21T05:56:12.395Z,60.81
2023-05-21T05:57:15.230Z,60.64
2023-05-21T05:58:18.094Z,61.25
2023-05-21T05:59:20.969Z,61.49
2023-05-21T06:00:24.052Z,60.79
2023-05-21T06:01:27.238Z,61.10
2023-05-21T06:02:30.335Z,60.69
2023-05-21T06:03:33.301Z,61.03
2023-05-21T06:04:36.435Z,59.68
2023-05-21T06:05:39.684Z,58.98
2023-05-21T06:06:42.885Z,59.54
2023-05-21T06:07:45.973Z,58.57
2023-05-21T06:08:48.933Z,58.81
2023-05-21T06:09:51.913Z,59.49
2023-05-21T06:10:54.734Z,58.38
2023-05-21T06:11:57.631Z,57.97
2023-05-21T06:13:00.467Z,57.66
2023-05-21T06:14:03.394Z,56.90
2023-05-21T06:15:06.912Z,58.13
2023-05-21T06:16:10.342Z,57.88
2023-05-21T06:17:13.496Z,58.29
2023-05-21T06:18:16.599Z,58.00
2023-05-21T06:19:19.411Z,58.37
2023-05-21T06:20:22.405Z,57.40
2023-05-21T06:21:25.496Z,56.56
2023-05-21T06:22:28.509Z,57.54
2023-05-21T06:23:32.965Z,54.71
2023-05-21T06:24:36.093Z,56.09
2023-05-21T06:25:40.910Z,55.78
2023-05-21T06:26:44.001Z,55.57
2023-05-21T06:27:47.019Z,55.30
2023-05-21T06:28:50.219Z,55.35
2023-05-21T06:29:53.123Z,56.78
2023-05-21T06:30:56.157Z,57.96
2023-05-21T06:31:59.120Z,57.25
2023-05-21T06:33:02.212Z,57.38
2023-05-21T06:34:05.359Z,55.96
2023-05-21T06:35:09.207Z,54.60
2023-05-21T06:36:12.283Z,54.61
2023-05-21T06:37:19.450Z,54.53
2023-05-21T06:38:22.395Z,54.18
2023-05-21T06:39:25.295Z,53.87
2023-05-21T06:40:28.187Z,54.54
2023-05-21T06:41:31.292Z,54.40
2023-05-21T06:42:34.126Z,55.08
2023-05-21T06:43:36.941Z,55.94
2023-05-21T06:44:39.956Z,54.92
2023-05-21T06:45:42.837Z,55.67
2023-05-21T06:46:45.889Z,57.54
2023-05-21T06:47:48.902Z,55.16
2023-05-21T06:48:51.875Z,53.93
2023-05-21T06:49:54.779Z,54.52
2023-05-21T06:50:57.612Z,54.47
2023-05-21T06:52:00.528Z,54.18
2023-05-21T06:53:03.626Z,54.20
2023-05-21T06:54:06.530Z,54.47
2023-05-21T06:55:09.664Z,53.46
2023-05-21T06:56:13.336Z,53.12
2023-05-21T06:57:16.721Z,51.53
2023-05-21T06:58:19.876Z,51.37
2023-05-21T06:59:22.836Z,52.95
2023-05-21T07:00:26.228Z,53.91
2023-05-21T07:01:29.181Z,52.41
2023-05-21T07:02:32.307Z,50.66
2023-05-21T07:03:36.705Z,52.51
2023-05-21T07:04:39.547Z,53.18
2023-05-21T07:05:42.368Z,54.35
2023-05-21T07:06:45.207Z,53.50
2023-05-21T07:07:48.131Z,51.46
2023-05-21T07:08:51.075Z,51.31
2023-05-21T07:09:54.013Z,50.63
2023-05-21T07:10:56.832Z,52.31
2023-05-21T07:11:59.823Z,50.00
2023-05-21T07:13:02.663Z,50.61
2023-05-21T07:14:05.478Z,51.39
2023-05-21T07:15:09.484Z,49.11
2023-05-21T07:16:12.512Z,52.03
2023-05-21T07:17:15.538Z,51.19
2023-05-21T07:18:19.474Z,48.86
2023-05-21T07:19:22.548Z,48.98
2023-05-21T07:20:25.815Z,47.97
2023-05-21T07:21:28.681Z,47.11
2023-05-21T07:22:31.487Z,48.62
2023-05-21T07:23:34.433Z,46.42
2023-05-21T07:24:37.642Z,46.85
2023-05-21T07:25:40.582Z,46.37
2023-05-21T07:26:43.454Z,47.43
2023-05-21T07:27:46.406Z,49.46
2023-05-21T07:28:49.352Z,48.30
2023-05-21T07:29:52.370Z,47.74
2023-05-21T07:30:55.334Z,46.54
2023-05-21T07:31:58.347Z,47.62
2023-05-21T07:33:01.525Z,48.07
2023-05-21T07:34:04.445Z,47.94
2023-05-21T07:35:07.527Z,46.52
2023-05-21T07:36:10.304Z,45.58
2023-05-21T07:37:14.183Z,46.22
2023-05-21T07:38:17.852Z,45.75
2023-05-21T07:39:21.050Z,44.57
2023-05-21T07:40:23.892Z,45.10
2023-05-21T07:41:26.839Z,47.20
2023-05-21T07:42:29.731Z,46.65
2023-05-21T07:43:32.634Z,46.81
2023-05-21T07:44:35.678Z,44.80
2023-05-21T07:45:38.772Z,44.65
2023-05-21T07:46:41.888Z,45.45
2023-05-21T07:47:46.981Z,45.74
2023-05-21T07:48:50.354Z,46.98
2023-05-21T07:49:53.212Z,44.71
2023-05-21T07:50:56.812Z,45.12
2023-05-21T07:51:59.667Z,46.32
2023-05-21T07:53:02.524Z,44.87
2023-05-21T07:54:05.427Z,45.40
2023-05-21T07:55:09.732Z,43.87
2023-05-21T07:56:12.638Z,44.98
2023-05-21T07:57:15.368Z,45.80
2023-05-21T07:58:20.409Z,43.54
2023-05-21T07:59:23.231Z,44.65
2023-05-21T08:00:26.181Z,44.44
2023-05-21T08:01:31.807Z,44.60
2023-05-21T08:02:34.775Z,44.55
2023-05-21T08:03:37.849Z,43.51
2023-05-21T08:04:41.461Z,42.69
2023-05-21T08:05:49.065Z,43.38
2023-05-21T08:06:52.175Z,43.52
2023-05-21T08:07:55.014Z,42.83
2023-05-21T08:08:57.882Z,43.47
2023-05-21T08:10:02.262Z,44.84
2023-05-21T08:11:05.990Z,43.36
2023-05-21T08:12:08.819Z,41.61
2023-05-21T08:13:16.133Z,41.95
2023-05-21T08:14:19.070Z,44.45
2023-05-21T08:15:21.952Z,41.08
2023-05-21T08:16:24.966Z,42.12
2023-05-21T08:17:28.922Z,41.59
2023-05-21T08:18:32.224Z,42.52
2023-05-21T08:19:35.144Z,41.69
2023-05-21T08:20:38.210Z,41.37
2023-05-21T08:21:41.126Z,42.46
2023-05-21T08:22:44.517Z,40.93
2023-05-21T08:23:47.500Z,40.47
2023-05-21T08:24:50.331Z,39.98
2023-05-21T08:25:53.815Z,39.52
2023-05-21T08:26:56.777Z,41.61
2023-05-21T08:27:59.782Z,43.00
2023-05-21T08:29:03.062Z,39.97
2023-05-21T08:30:07.104Z,39.80
2023-05-21T08:31:10.117Z,40.09
2023-05-21T08:32:13.131Z,40.76
2023-05-21T08:33:16.125Z,40.22
2023-05-21T08:34:19.081Z,40.01
2023-05-21T08:35:22.062Z,40.24
2023-05-21T08:36:25.369Z,39.95
2023-05-21T08:37:28.298Z,41.63
2023-05-21T08:38:31.589Z,41.11
2023-05-21T08:39:34.601Z,39.99
2023-05-21T08:40:37.691Z,40.25
2023-05-21T08:41:46.716Z,41.59
2023-05-21T08:42:50.221Z,42.04
2023-05-21T08:43:59.774Z,41.83
2023-05-21T08:45:06.309Z,41.82
2023-05-21T08:46:10.212Z,39.81
2023-05-21T08:47:16.910Z,40.71
2023-05-21T08:48:22.599Z,39.57
2023-05-21T08:49:31.410Z,38.98
2023-05-21T08:50:34.295Z,39.18
2023-05-21T08:51:38.914Z,39.63
2023-05-21T08:52:42.283Z,39.29
2023-05-21T08:53:46.004Z,39.70
2023-05-21T08:54:52.790Z,39.44
2023-05-21T08:55:56.601Z,40.11
2023-05-21T08:57:01.020Z,38.33
2023-05-21T08:58:04.894Z,38.83
2023-05-21T08:59:07.992Z,39.38
2023-05-21T09:00:12.099Z,41.00
2023-05-21T09:01:15.307Z,39.29
2023-05-21T09:02:20.325Z,41.62
2023-05-21T09:03:24.521Z,39.13
2023-05-21T09:04:29.012Z,41.83
2023-05-21T09:05:32.114Z,38.54
2023-05-21T09:06:35.157Z,40.71
2023-05-21T09:07:52.488Z,39.20
2023-05-21T09:09:07.097Z,37.11
2023-05-21T09:10:13.510Z,38.03
2023-05-21T09:11:16.767Z,40.94
2023-05-21T09:12:19.944Z,41.02
2023-05-21T09:13:25.717Z,37.50
2023-05-21T09:14:29.254Z,37.21
2023-05-21T09:15:32.863Z,39.45
2023-05-21T09:16:35.994Z,37.74
2023-05-21T09:17:39.007Z,38.59
2023-05-21T09:18:41.959Z,37.84
2023-05-21T09:20:15.357Z,39.10
2023-05-21T09:21:26.876Z,41.36
2023-05-21T09:22:29.912Z,38.58
2023-05-21T09:23:33.261Z,38.96
2023-05-21T09:24:36.648Z,38.76
2023-05-21T09:25:40.022Z,39.15
2023-05-21T09:26:44.079Z,38.13
2023-05-21T09:27:47.021Z,36.54
2023-05-21T09:28:50.896Z,36.83
2023-05-21T09:29:53.773Z,38.77
2023-05-21T09:30:56.858Z,35.60
2023-05-21T09:32:06.125Z,36.04
2023-05-21T09:33:08.886Z,36.18
2023-05-21T09:34:12.068Z,38.16
2023-05-21T09:35:15.962Z,37.56
2023-05-21T09:36:20.667Z,38.30
2023-05-21T09:37:27.511Z,35.69
2023-05-21T09:38:34.844Z,35.95
2023-05-21T09:39:41.473Z,35.65
2023-05-21T09:40:48.357Z,34.13
2023-05-21T09:41:51.274Z,35.61
2023-05-21T09:42:55.397Z,33.96
2023-05-21T09:44:05.004Z,33.98
2023-05-21T09:45:11.457Z,36.09
2023-05-21T09:46:14.553Z,35.85
2023-05-21T09:47:20.819Z,36.22
2023-05-21T09:48:42.210Z,35.98
2023-05-21T09:49:45.176Z,37.74
2023-05-21T09:50:48.006Z,34.91
2023-05-21T09:51:50.901Z,33.59
2023-05-21T09:52:55.672Z,33.60
2023-05-21T09:53:58.761Z,34.89
2023-05-21T09:55:02.144Z,33.88
2023-05-21T09:56:05.601Z,33.96
2023-05-21T09:57:08.633Z,33.02
2023-05-21T09:58:11.596Z,32.62
2023-05-21T09:59:14.613Z,33.52
2023-05-21T10:00:20.354Z,33.31
2023-05-21T10:01:24.884Z,33.00
2023-05-21T10:02:30.266Z,32.86
2023-05-21T10:03:39.399Z,32.26
2023-05-21T10:04:43.493Z,32.79
2023-05-21T10:05:46.499Z,32.02
2023-05-21T10:06:51.434Z,33.65
2023-05-21T10:08:02.156Z,32.48
2023-05-21T10:09:10.820Z,32.65
2023-05-21T10:10:17.968Z,32.26
2023-05-21T10:11:24.203Z,31.89
2023-05-21T10:12:30.842Z,35.08
2023-05-21T10:13:39.949Z,36.31
2023-05-21T10:14:47.010Z,34.43
2023-05-21T10:15:56.054Z,35.83
2023-05-21T10:17:01.141Z,34.64
2023-05-21T10:18:05.087Z,34.00
2023-05-21T10:19:11.267Z,33.38
2023-05-21T10:20:14.863Z,34.90
2023-05-21T10:21:18.414Z,34.45
2023-05-21T10:22:21.537Z,36.92
2023-05-21T10:23:26.032Z,35.24
2023-05-21T10:24:29.721Z,34.42
2023-05-21T10:25:32.824Z,32.55
2023-05-21T10:26:36.627Z,33.73
2023-05-21T10:27:39.828Z,34.50
2023-05-21T10:28:43.591Z,36.82
2023-05-21T10:29:48.170Z,33.19
2023-05-21T10:30:52.654Z,35.04
2023-05-21T10:31:56.154Z,32.74
2023-05-21T10:33:00.277Z,32.39
2023-05-21T10:34:06.767Z,32.04
2023-05-21T10:35:10.342Z,33.23
2023-05-21T10:36:19.015Z,32.21
2023-05-21T10:37:28.510Z,31.83
2023-05-21T10:38:34.101Z,32.39
2023-05-21T10:39:39.514Z,34.29
2023-05-21T10:40:42.453Z,32.65
2023-05-21T10:42:06.116Z,32.89
2023-05-21T10:43:34.879Z,33.36
2023-05-21T10:44:49.740Z,31.38
2023-05-21T10:45:52.499Z,31.57
2023-05-21T10:47:01.258Z,30.64
2023-05-21T10:48:19.535Z,30.61
2023-05-21T10:49:50.418Z,30.98
2023-05-21T10:51:16.286Z,35.87
2023-05-21T10:52:24.958Z,32.62
2023-05-21T10:54:09.381Z,30.35
2023-05-21T10:55:15.289Z,31.53
2023-05-21T10:56:42.821Z,32.95
2023-05-21T10:58:14.139Z,30.93
2023-05-21T10:59:36.858Z,31.22
2023-05-21T11:00:41.383Z,32.88
2023-05-21T11:01:45.617Z,32.82
2023-05-21T11:02:52.074Z,35.34
2023-05-21T11:03:56.284Z,33.76
2023-05-21T11:05:02.070Z,32.68
2023-05-21T11:06:08.743Z,33.99
2023-05-21T11:07:13.250Z,35.42
2023-05-21T11:08:27.323Z,31.69
2023-05-21T11:09:30.405Z,30.38
2023-05-21T11:10:41.197Z,30.49
2023-05-21T11:11:48.806Z,30.48
2023-05-21T11:13:13.277Z,29.96
2023-05-21T11:14:38.420Z,29.37
2023-05-21T11:16:17.332Z,32.96
2023-05-21T11:17:42.230Z,29.73
2023-05-21T11:18:45.113Z,30.52
2023-05-21T11:19:48.281Z,33.67
2023-05-21T11:20:51.814Z,31.50
2023-05-21T11:21:55.896Z,30.88
2023-05-21T11:22:58.830Z,30.58
2023-05-21T11:24:06.678Z,30.73
2023-05-21T11:25:10.528Z,34.16
2023-05-21T11:26:16.601Z,31.29
2023-05-21T11:27:40.128Z,29.97
2023-05-21T11:28:43.212Z,30.29
2023-05-21T11:29:46.231Z,30.21
2023-05-21T11:31:27.231Z,32.71
2023-05-21T11:32:30.178Z,32.58
2023-05-21T11:33:34.073Z,33.55
2023-05-21T11:34:46.185Z,32.96
2023-05-21T11:35:55.228Z,33.35
2023-05-21T11:37:23.609Z,32.81
2023-05-21T11:38:31.841Z,32.42
2023-05-21T11:39:40.684Z,32.76
2023-05-21T11:40:56.796Z,31.90
2023-05-21T11:42:04.372Z,31.17
2023-05-21T11:43:07.918Z,30.46
2023-05-21T11:44:11.106Z,31.04
2023-05-21T11:45:18.468Z,31.55
2023-05-21T11:46:21.478Z,29.77
2023-05-21T11:47:26.605Z,32.29
2023-05-21T11:48:32.766Z,33.65
2023-05-21T11:49:37.240Z,29.72
2023-05-21T11:50:42.550Z,31.94
2023-05-21T11:51:45.607Z,31.38
2023-05-21T11:52:49.965Z,30.53
2023-05-21T11:53:52.950Z,31.12
2023-05-21T11:54:57.516Z,31.40
2023-05-21T11:56:02.894Z,32.01
2023-05-21T11:57:08.875Z,31.10
2023-05-21T11:58:14.640Z,30.78
2023-05-21T11:59:18.760Z,29.46
2023-05-21T12:00:22.427Z,30.00
2023-05-21T12:01:25.326Z,30.47
2023-05-21T12:02:33.016Z,31.83
2023-05-21T12:03:36.276Z,31.18
2023-05-21T12:04:39.296Z,29.97
2023-05-21T12:05:49.120Z,31.11
2023-05-21T12:06:52.214Z,32.45
2023-05-21T12:07:55.844Z,33.78
2023-05-21T12:08:59.214Z,31.30
2023-05-21T12:10:02.186Z,30.95
2023-05-21T12:11:05.302Z,32.51
2023-05-21T12:12:16.812Z,34.41
2023-05-21T12:13:19.749Z,36.26
2023-05-21T12:14:23.539Z,36.75
2023-05-21T12:15:27.982Z,35.86
2023-05-21T12:16:32.908Z,34.00
2023-05-21T12:17:35.967Z,34.24
2023-05-21T12:18:39.119Z,33.76
2023-05-21T12:19:42.734Z,33.95
2023-05-21T12:20:46.192Z,32.47
2023-05-21T12:21:49.293Z,30.08
2023-05-21T12:22:52.397Z,29.90
2023-05-21T12:23:56.054Z,31.37
2023-05-21T12:25:01.218Z,28.95
2023-05-21T12:26:04.845Z,30.45
2023-05-21T12:27:13.746Z,28.86
2023-05-21T12:28:16.834Z,30.17
2023-05-21T12:29:20.597Z,27.92
2023-05-21T12:30:24.547Z,27.80
2023-05-21T12:31:33.043Z,27.11
2023-05-21T12:32:38.515Z,29.56
2023-05-21T12:33:41.449Z,28.76
2023-05-21T12:34:49.924Z,29.98
2023-05-21T12:35:55.081Z,31.64
2023-05-21T12:36:57.933Z,29.75
2023-05-21T12:38:02.530Z,28.90
2023-05-21T12:39:05.622Z,28.11
2023-05-21T12:40:09.354Z,28.57
2023-05-21T12:41:12.251Z,28.05
2023-05-21T12:42:15.367Z,30.80
2023-05-21T12:43:18.355Z,32.98
2023-05-21T12:44:22.979Z,31.65
2023-05-21T12:45:26.198Z,28.38
2023-05-21T12:46:29.150Z,28.79
2023-05-21T12:47:33.501Z,28.51
2023-05-21T12:48:36.390Z,27.97
2023-05-21T12:49:45.087Z,30.26
2023-05-21T12:50:47.984Z,28.95
2023-05-21T12:51:50.995Z,31.15
2023-05-21T12:52:58.158Z,29.39
2023-05-21T12:54:03.906Z,29.55
2023-05-21T12:55:09.401Z,29.34
2023-05-21T12:56:13.446Z,30.91
2023-05-21T12:57:18.636Z,31.66
2023-05-21T12:58:22.666Z,30.33
2023-05-21T12:59:25.792Z,30.44
2023-05-21T13:00:28.876Z,30.71
2023-05-21T13:01:31.886Z,31.38
2023-05-21T13:02:35.732Z,32.32
2023-05-21T13:03:39.263Z,31.86
2023-05-21T13:04:42.584Z,31.99
2023-05-21T13:05:45.555Z,32.46
2023-05-21T13:06:48.548Z,32.51
2023-05-21T13:07:51.896Z,34.41
2023-05-21T13:08:56.175Z,33.68
2023-05-21T13:10:00.265Z,33.92
2023-05-21T13:11:03.787Z,35.36
2023-05-21T13:12:06.846Z,35.29
2023-05-21T13:13:09.718Z,33.79
2023-05-21T13:14:12.583Z,32.21
2023-05-21T13:15:15.841Z,30.48
2023-05-21T13:16:22.353Z,29.86
2023-05-21T13:17:26.385Z,30.69
2023-05-21T13:18:29.346Z,31.41
2023-05-21T13:19:32.695Z,31.66
2023-05-21T13:20:37.098Z,29.34
2023-05-21T13:21:40.161Z,30.46
2023-05-21T13:22:48.036Z,31.38
2023-05-21T13:23:50.938Z,32.27
2023-05-21T13:24:53.866Z,32.55
2023-05-21T13:25:56.813Z,32.44
2023-05-21T13:26:59.962Z,29.34
2023-05-21T13:28:10.599Z,30.58
2023-05-21T13:29:15.207Z,29.90
2023-05-21T13:30:19.139Z,29.43
2023-05-21T13:31:22.671Z,29.69
2023-05-21T13:32:25.712Z,29.11
2023-05-21T13:33:28.834Z,29.75
2023-05-21T13:34:31.833Z,31.47
2023-05-21T13:35:34.931Z,31.53
2023-05-21T13:36:38.153Z,31.17
2023-05-21T13:37:41.943Z,30.62
2023-05-21T13:38:44.826Z,30.92
2023-05-21T13:39:48.138Z,33.59
2023-05-21T13:40:51.096Z,30.90
2023-05-21T13:41:54.157Z,31.61
2023-05-21T13:42:57.178Z,31.16
2023-05-21T13:44:00.259Z,31.15
2023-05-21T13:45:03.342Z,29.75
2023-05-21T13:46:06.486Z,31.37
2023-05-21T13:47:10.640Z,31.38
2023-05-21T13:48:13.616Z,30.25
2023-05-21T13:49:16.736Z,30.36
2023-05-21T13:50:19.654Z,30.85
2023-05-21T13:51:37.579Z,30.38
2023-05-21T13:52:41.948Z,30.89